DLH94 KMCO-GOBD
Flight info
| Callsign | DLH94 |
|---|---|
| Flight time | N/A |
| Altitude | 38000 |
| Route | MZULO3 LENDS M203 SNAGY 2960N 2957N 2950N 2945N 2842N 2740N 2434N ULTEM UR976 LUMPO R976 LIGOV |
| Aircraft | A388/J-SADE2E3FGHIJ3J4J5M1RWXY/LB1D1 |
Departure
| Time | 2026-04-25 12:16 |
|---|---|
| Airport | Orlando International Airport (KMCO) |
Arrival
| Time | N/A |
|---|---|
| Airport | Blaise Diagne International Airport (GOBD) |
| Time | Latitude | Longitude | Altitude | Speed | Heading |
|---|---|---|---|---|---|
| 2026-04-25 10:48 | 28.41084 | -81.31687 | 101 ft | 0 kts | 358° |
| 2026-04-25 11:47 | 28.41074 | -81.31687 | 102 ft | 4 kts | 358° |
| 2026-04-25 11:48 | 28.41047 | -81.31686 | 100 ft | 4 kts | 358° |
| 2026-04-25 11:48 | 28.41023 | -81.31685 | 99 ft | 4 kts | 351° |
| 2026-04-25 11:48 | 28.40999 | -81.31676 | 100 ft | 4 kts | 311° |
| 2026-04-25 11:48 | 28.40991 | -81.31651 | 98 ft | 4 kts | 263° |
| 2026-04-25 11:49 | 28.40996 | -81.31621 | 97 ft | 4 kts | 257° |
| 2026-04-25 11:49 | 28.40999 | -81.31604 | 97 ft | 0 kts | 270° |
| 2026-04-25 11:54 | 28.40999 | -81.31607 | 102 ft | 3 kts | 270° |
| 2026-04-25 11:55 | 28.40999 | -81.31674 | 100 ft | 14 kts | 269° |
| 2026-04-25 11:55 | 28.40998 | -81.31789 | 101 ft | 15 kts | 270° |
| 2026-04-25 11:55 | 28.41016 | -81.31884 | 104 ft | 10 kts | 322° |
| 2026-04-25 11:55 | 28.41091 | -81.31910 | 103 ft | 13 kts | 351° |
| 2026-04-25 11:56 | 28.41188 | -81.31917 | 103 ft | 15 kts | 1° |
| 2026-04-25 11:56 | 28.41300 | -81.31915 | 104 ft | 17 kts | 0° |
| 2026-04-25 11:56 | 28.41424 | -81.31915 | 103 ft | 19 kts | 359° |
| 2026-04-25 11:56 | 28.41555 | -81.31951 | 102 ft | 20 kts | 338° |
| 2026-04-25 11:57 | 28.41693 | -81.31981 | 102 ft | 20 kts | 358° |
| 2026-04-25 11:57 | 28.41832 | -81.31982 | 104 ft | 20 kts | 360° |
| 2026-04-25 11:57 | 28.41976 | -81.31982 | 104 ft | 21 kts | 360° |
| 2026-04-25 11:57 | 28.42087 | -81.31983 | 107 ft | 14 kts | 360° |
| 2026-04-25 11:58 | 28.42188 | -81.31984 | 107 ft | 15 kts | 360° |
| 2026-04-25 11:58 | 28.42296 | -81.31984 | 108 ft | 16 kts | 358° |
| 2026-04-25 11:58 | 28.42418 | -81.31987 | 109 ft | 19 kts | 359° |
| 2026-04-25 11:58 | 28.42554 | -81.31990 | 108 ft | 20 kts | 359° |
| 2026-04-25 11:59 | 28.42700 | -81.31991 | 108 ft | 22 kts | 360° |
| 2026-04-25 11:59 | 28.42856 | -81.31992 | 105 ft | 23 kts | 359° |
| 2026-04-25 11:59 | 28.42953 | -81.31993 | 103 ft | 0 kts | 359° |
| 2026-04-25 12:01 | 28.42957 | -81.31993 | 104 ft | 0 kts | 359° |
| 2026-04-25 12:01 | 28.42964 | -81.31993 | 105 ft | 4 kts | 359° |
| 2026-04-25 12:01 | 28.43012 | -81.31988 | 103 ft | 7 kts | 27° |
| 2026-04-25 12:02 | 28.43030 | -81.31924 | 103 ft | 4 kts | 99° |
| 2026-04-25 12:02 | 28.43015 | -81.31882 | 105 ft | 7 kts | 129° |
| 2026-04-25 12:02 | 28.42966 | -81.31848 | 104 ft | 10 kts | 163° |
| 2026-04-25 12:03 | 28.42891 | -81.31836 | 104 ft | 12 kts | 177° |
| 2026-04-25 12:03 | 28.42803 | -81.31835 | 104 ft | 13 kts | 181° |
| 2026-04-25 12:03 | 28.42714 | -81.31837 | 108 ft | 13 kts | 181° |
| 2026-04-25 12:03 | 28.42618 | -81.31838 | 108 ft | 15 kts | 179° |
| 2026-04-25 12:04 | 28.42509 | -81.31837 | 107 ft | 16 kts | 179° |
| 2026-04-25 12:04 | 28.42446 | -81.31836 | 108 ft | 8 kts | 179° |
| 2026-04-25 12:04 | 28.42387 | -81.31822 | 106 ft | 9 kts | 143° |
| 2026-04-25 12:04 | 28.42352 | -81.31754 | 106 ft | 12 kts | 103° |
| 2026-04-25 12:05 | 28.42348 | -81.31643 | 103 ft | 16 kts | 89° |
| 2026-04-25 12:05 | 28.42350 | -81.31506 | 99 ft | 19 kts | 89° |
| 2026-04-25 12:05 | 28.42351 | -81.31347 | 97 ft | 20 kts | 90° |
| 2026-04-25 12:05 | 28.42341 | -81.31190 | 101 ft | 20 kts | 97° |
| 2026-04-25 12:06 | 28.42322 | -81.31037 | 101 ft | 19 kts | 97° |
| 2026-04-25 12:06 | 28.42321 | -81.30895 | 106 ft | 16 kts | 84° |
| 2026-04-25 12:06 | 28.42330 | -81.30776 | 108 ft | 12 kts | 86° |
| 2026-04-25 12:06 | 28.42337 | -81.30672 | 109 ft | 14 kts | 85° |
| 2026-04-25 12:07 | 28.42343 | -81.30581 | 109 ft | 9 kts | 85° |
| 2026-04-25 12:07 | 28.42346 | -81.30524 | 111 ft | 0 kts | 85° |
| 2026-04-25 12:08 | 28.42347 | -81.30511 | 109 ft | 4 kts | 85° |
| 2026-04-25 12:08 | 28.42349 | -81.30483 | 111 ft | 7 kts | 85° |
| 2026-04-25 12:08 | 28.42354 | -81.30409 | 103 ft | 12 kts | 85° |
| 2026-04-25 12:08 | 28.42363 | -81.30265 | 100 ft | 9 kts | 90° |
| 2026-04-25 12:09 | 28.42363 | -81.30211 | 100 ft | 10 kts | 90° |
| 2026-04-25 12:09 | 28.42362 | -81.30128 | 103 ft | 11 kts | 91° |
| 2026-04-25 12:09 | 28.42360 | -81.30029 | 105 ft | 14 kts | 90° |
| 2026-04-25 12:09 | 28.42361 | -81.29917 | 103 ft | 15 kts | 86° |
| 2026-04-25 12:10 | 28.42408 | -81.29818 | 104 ft | 15 kts | 32° |
| 2026-04-25 12:10 | 28.42518 | -81.29796 | 104 ft | 23 kts | 360° |
| 2026-04-25 12:10 | 28.42685 | -81.29796 | 105 ft | 24 kts | 359° |
| 2026-04-25 12:10 | 28.42850 | -81.29799 | 105 ft | 23 kts | 359° |
| 2026-04-25 12:11 | 28.43009 | -81.29801 | 104 ft | 23 kts | 359° |
| 2026-04-25 12:11 | 28.43168 | -81.29803 | 106 ft | 23 kts | 360° |
| 2026-04-25 12:11 | 28.43274 | -81.29803 | 105 ft | 7 kts | 1° |
| 2026-04-25 12:11 | 28.43289 | -81.29801 | 105 ft | 2 kts | 6° |
| 2026-04-25 12:12 | 28.43324 | -81.29801 | 105 ft | 8 kts | 358° |
| 2026-04-25 12:12 | 28.43394 | -81.29803 | 104 ft | 12 kts | 358° |
| 2026-04-25 12:12 | 28.43492 | -81.29802 | 106 ft | 15 kts | 13° |
| 2026-04-25 12:12 | 28.43548 | -81.29728 | 105 ft | 0 kts | 86° |
| 2026-04-25 12:13 | 28.43548 | -81.29720 | 105 ft | 6 kts | 86° |
| 2026-04-25 12:13 | 28.43549 | -81.29640 | 105 ft | 11 kts | 103° |
| 2026-04-25 12:13 | 28.43505 | -81.29594 | 107 ft | 9 kts | 166° |
| 2026-04-25 12:13 | 28.43473 | -81.29588 | 106 ft | 0 kts | 179° |
| 2026-04-25 12:15 | 28.43470 | -81.29588 | 106 ft | 5 kts | 179° |
| 2026-04-25 12:15 | 28.43158 | -81.29583 | 108 ft | 87 kts | 179° |
| 2026-04-25 12:15 | 28.42299 | -81.29577 | 100 ft | 154 kts | 179° |
| 2026-04-25 12:16 | 28.41082 | -81.29560 | 138 ft | 190 kts | 179° |
| 2026-04-25 12:16 | 28.39749 | -81.29567 | 602 ft | 192 kts | 181° |
| 2026-04-25 12:16 | 28.38409 | -81.29479 | 1033 ft | 194 kts | 166° |
| 2026-04-25 12:16 | 28.37203 | -81.28787 | 1419 ft | 198 kts | 143° |
| 2026-04-25 12:17 | 28.36155 | -81.27741 | 1778 ft | 204 kts | 138° |
| 2026-04-25 12:17 | 28.35146 | -81.26583 | 2119 ft | 208 kts | 134° |
| 2026-04-25 12:17 | 28.34169 | -81.25343 | 2484 ft | 214 kts | 132° |
| 2026-04-25 12:17 | 28.33224 | -81.24040 | 2822 ft | 217 kts | 128° |
| 2026-04-25 12:18 | 28.32579 | -81.22515 | 3445 ft | 220 kts | 98° |
| 2026-04-25 12:18 | 28.32741 | -81.20781 | 3989 ft | 229 kts | 66° |
| 2026-04-25 12:18 | 28.33582 | -81.19175 | 4428 ft | 246 kts | 54° |
| 2026-04-25 12:18 | 28.34584 | -81.17499 | 4806 ft | 266 kts | 58° |
| 2026-04-25 12:19 | 28.35983 | -81.14166 | 5568 ft | 291 kts | 68° |
| 2026-04-25 12:19 | 28.36919 | -81.11274 | 6479 ft | 296 kts | 70° |
| 2026-04-25 12:19 | 28.37584 | -81.09054 | 7210 ft | 297 kts | 70° |
| 2026-04-25 12:20 | 28.38272 | -81.06822 | 7945 ft | 299 kts | 70° |
| 2026-04-25 12:20 | 28.38964 | -81.04624 | 8670 ft | 300 kts | 69° |
| 2026-04-25 12:20 | 28.39825 | -81.02414 | 9009 ft | 316 kts | 60° |
| 2026-04-25 12:20 | 28.40916 | -81.00160 | 9205 ft | 334 kts | 60° |
| 2026-04-25 12:21 | 28.42011 | -80.97749 | 9452 ft | 350 kts | 63° |
| 2026-04-25 12:21 | 28.43042 | -80.95212 | 10027 ft | 355 kts | 65° |
| 2026-04-25 12:21 | 28.44022 | -80.92622 | 10607 ft | 359 kts | 66° |
| 2026-04-25 12:21 | 28.44984 | -80.89991 | 11186 ft | 362 kts | 66° |
| 2026-04-25 12:22 | 28.45943 | -80.87334 | 11775 ft | 365 kts | 66° |
| 2026-04-25 12:22 | 28.46910 | -80.84648 | 12346 ft | 369 kts | 67° |
| 2026-04-25 12:22 | 28.47684 | -80.81853 | 12910 ft | 374 kts | 76° |
| 2026-04-25 12:22 | 28.48094 | -80.78911 | 13489 ft | 378 kts | 83° |
| 2026-04-25 12:23 | 28.48394 | -80.75940 | 14016 ft | 381 kts | 82° |
| 2026-04-25 12:23 | 28.48727 | -80.72928 | 14512 ft | 385 kts | 81° |
| 2026-04-25 12:23 | 28.49070 | -80.69897 | 15010 ft | 388 kts | 81° |
| 2026-04-25 12:23 | 28.49413 | -80.66847 | 15442 ft | 392 kts | 81° |
| 2026-04-25 12:24 | 28.49758 | -80.63763 | 15921 ft | 395 kts | 81° |
| 2026-04-25 12:24 | 28.50101 | -80.60681 | 16394 ft | 398 kts | 81° |
| 2026-04-25 12:24 | 28.50448 | -80.57539 | 16863 ft | 402 kts | 81° |
| 2026-04-25 12:24 | 28.50799 | -80.54359 | 17306 ft | 406 kts | 81° |
| 2026-04-25 12:25 | 28.51150 | -80.51160 | 17748 ft | 409 kts | 81° |
| 2026-04-25 12:25 | 28.51504 | -80.47936 | 18200 ft | 413 kts | 81° |
| 2026-04-25 12:25 | 28.51860 | -80.44684 | 18593 ft | 416 kts | 81° |
| 2026-04-25 12:25 | 28.52213 | -80.41453 | 19005 ft | 418 kts | 81° |
| 2026-04-25 12:26 | 28.52576 | -80.38117 | 19406 ft | 420 kts | 81° |
| 2026-04-25 12:26 | 28.52936 | -80.34804 | 19810 ft | 423 kts | 81° |
| 2026-04-25 12:26 | 28.53310 | -80.31520 | 20208 ft | 425 kts | 78° |
| 2026-04-25 12:26 | 28.53997 | -80.28257 | 20591 ft | 425 kts | 70° |
| 2026-04-25 12:27 | 28.55064 | -80.25127 | 20996 ft | 424 kts | 63° |
| 2026-04-25 12:27 | 28.56265 | -80.22049 | 21376 ft | 427 kts | 64° |
| 2026-04-25 12:27 | 28.57453 | -80.18930 | 21780 ft | 429 kts | 64° |
| 2026-04-25 12:27 | 28.58631 | -80.15810 | 22168 ft | 431 kts | 64° |
| 2026-04-25 12:28 | 28.59821 | -80.12659 | 22552 ft | 433 kts | 64° |
| 2026-04-25 12:28 | 28.61011 | -80.09506 | 22949 ft | 435 kts | 64° |
| 2026-04-25 12:28 | 28.62211 | -80.06330 | 23332 ft | 437 kts | 64° |
| 2026-04-25 12:28 | 28.63413 | -80.03149 | 23695 ft | 439 kts | 64° |
| 2026-04-25 12:29 | 28.64624 | -79.99939 | 24037 ft | 441 kts | 65° |
| 2026-04-25 12:29 | 28.65820 | -79.96771 | 24384 ft | 442 kts | 65° |
| 2026-04-25 12:29 | 28.67034 | -79.93549 | 24733 ft | 443 kts | 65° |
| 2026-04-25 12:29 | 28.68252 | -79.90314 | 25101 ft | 445 kts | 65° |
| 2026-04-25 12:30 | 28.69473 | -79.87069 | 25456 ft | 447 kts | 65° |
| 2026-04-25 12:30 | 28.70703 | -79.83797 | 25840 ft | 449 kts | 65° |
| 2026-04-25 12:30 | 28.71935 | -79.80518 | 26218 ft | 451 kts | 65° |
| 2026-04-25 12:30 | 28.73169 | -79.77229 | 26610 ft | 453 kts | 65° |
| 2026-04-25 12:31 | 28.74413 | -79.73912 | 27018 ft | 455 kts | 65° |
| 2026-04-25 12:31 | 28.75658 | -79.70589 | 27433 ft | 457 kts | 65° |
| 2026-04-25 12:31 | 28.76910 | -79.67244 | 27849 ft | 459 kts | 65° |
| 2026-04-25 12:31 | 28.78149 | -79.63929 | 28256 ft | 462 kts | 65° |
| 2026-04-25 12:32 | 28.79411 | -79.60552 | 28675 ft | 464 kts | 65° |
| 2026-04-25 12:32 | 28.80737 | -79.57189 | 29082 ft | 465 kts | 61° |
| 2026-04-25 12:32 | 28.82382 | -79.54014 | 29486 ft | 466 kts | 54° |
| 2026-04-25 12:32 | 28.84282 | -79.51017 | 29892 ft | 468 kts | 52° |
| 2026-04-25 12:33 | 28.86194 | -79.47999 | 30263 ft | 470 kts | 53° |
| 2026-04-25 12:33 | 28.88108 | -79.44950 | 30604 ft | 473 kts | 53° |
| 2026-04-25 12:33 | 28.90025 | -79.41888 | 30942 ft | 475 kts | 53° |
| 2026-04-25 12:33 | 28.91956 | -79.38805 | 31276 ft | 478 kts | 53° |
| 2026-04-25 12:34 | 28.93898 | -79.35706 | 31594 ft | 481 kts | 53° |
| 2026-04-25 12:34 | 28.95187 | -79.33648 | 31822 ft | 483 kts | 53° |
| 2026-04-25 12:34 | 28.95851 | -79.32587 | 31924 ft | 484 kts | 53° |
| 2026-04-25 12:35 | 29.07700 | -79.13627 | 33900 ft | 500 kts | 53° |
| 2026-04-25 12:36 | 29.09722 | -79.10384 | 34214 ft | 502 kts | 53° |
| 2026-04-25 12:36 | 29.11751 | -79.07125 | 34506 ft | 504 kts | 53° |
| 2026-04-25 12:36 | 29.13794 | -79.03843 | 34768 ft | 507 kts | 53° |
| 2026-04-25 12:36 | 29.15843 | -79.00548 | 35117 ft | 508 kts | 53° |
| 2026-04-25 12:37 | 29.17886 | -78.97258 | 35526 ft | 507 kts | 52° |
| 2026-04-25 12:37 | 29.19930 | -78.93966 | 35971 ft | 506 kts | 52° |
| 2026-04-25 12:37 | 29.21961 | -78.90691 | 36393 ft | 505 kts | 52° |
| 2026-04-25 12:37 | 29.23982 | -78.87429 | 36811 ft | 504 kts | 52° |
| 2026-04-25 12:38 | 29.25993 | -78.84183 | 37209 ft | 503 kts | 52° |
| 2026-04-25 12:38 | 29.28016 | -78.80913 | 37620 ft | 502 kts | 52° |
| 2026-04-25 12:38 | 29.30033 | -78.77652 | 37976 ft | 502 kts | 52° |
| 2026-04-25 12:39 | 29.34046 | -78.71111 | 37989 ft | 497 kts | 54° |
| 2026-04-25 12:39 | 29.37339 | -78.64074 | 37988 ft | 505 kts | 64° |
| 2026-04-25 12:40 | 29.39635 | -78.56439 | 37993 ft | 509 kts | 73° |
| 2026-04-25 12:40 | 29.40912 | -78.48438 | 37995 ft | 511 kts | 79° |
| 2026-04-25 12:41 | 29.41955 | -78.40359 | 37992 ft | 512 kts | 79° |
| 2026-04-25 12:41 | 29.42989 | -78.32335 | 37994 ft | 512 kts | 79° |
| 2026-04-25 12:42 | 29.44019 | -78.24246 | 37986 ft | 512 kts | 79° |
| 2026-04-25 12:42 | 29.45040 | -78.16160 | 37987 ft | 512 kts | 79° |
| 2026-04-25 12:43 | 29.46060 | -78.08054 | 37987 ft | 512 kts | 79° |
| 2026-04-25 12:43 | 29.47576 | -77.95918 | 37987 ft | 513 kts | 79° |
| 2026-04-25 12:44 | 29.48579 | -77.87839 | 37991 ft | 513 kts | 80° |
| 2026-04-25 12:45 | 29.50074 | -77.75718 | 37992 ft | 509 kts | 80° |
| 2026-04-25 12:45 | 29.51565 | -77.63553 | 37987 ft | 512 kts | 80° |
| 2026-04-25 12:46 | 29.52545 | -77.55486 | 37994 ft | 513 kts | 80° |
| 2026-04-25 12:46 | 29.53528 | -77.47364 | 37994 ft | 513 kts | 80° |
| 2026-04-25 12:47 | 29.54507 | -77.39232 | 37995 ft | 513 kts | 81° |
| 2026-04-25 12:47 | 29.55480 | -77.31104 | 37993 ft | 513 kts | 81° |
| 2026-04-25 12:48 | 29.56442 | -77.23028 | 37994 ft | 513 kts | 81° |
| 2026-04-25 12:48 | 29.57403 | -77.14908 | 37995 ft | 513 kts | 81° |
| 2026-04-25 12:49 | 29.58361 | -77.06784 | 38001 ft | 513 kts | 81° |
| 2026-04-25 12:49 | 29.59314 | -76.98655 | 38000 ft | 513 kts | 81° |
| 2026-04-25 12:50 | 29.60262 | -76.90517 | 38003 ft | 513 kts | 81° |
| 2026-04-25 12:50 | 29.60852 | -76.82345 | 38004 ft | 514 kts | 88° |
| 2026-04-25 12:51 | 29.61023 | -76.74186 | 38005 ft | 513 kts | 88° |
| 2026-04-25 12:51 | 29.61233 | -76.65990 | 38008 ft | 513 kts | 88° |
| 2026-04-25 12:52 | 29.61448 | -76.57791 | 38006 ft | 513 kts | 88° |
| 2026-04-25 12:52 | 29.61657 | -76.49596 | 38013 ft | 512 kts | 88° |
| 2026-04-25 12:53 | 29.61861 | -76.41416 | 38014 ft | 512 kts | 88° |
| 2026-04-25 12:53 | 29.62060 | -76.33235 | 38010 ft | 511 kts | 88° |
| 2026-04-25 12:54 | 29.62253 | -76.25071 | 38011 ft | 511 kts | 88° |
| 2026-04-25 12:54 | 29.62440 | -76.16950 | 38014 ft | 510 kts | 88° |
| 2026-04-25 12:55 | 29.62563 | -76.11496 | 38014 ft | 510 kts | 88° |
| 2026-04-25 12:55 | 29.62800 | -76.00699 | 38009 ft | 509 kts | 88° |
| 2026-04-25 12:56 | 29.62972 | -75.92522 | 38012 ft | 509 kts | 89° |
| 2026-04-25 12:56 | 29.63136 | -75.84380 | 38014 ft | 508 kts | 89° |
| 2026-04-25 12:57 | 29.63292 | -75.76311 | 38017 ft | 508 kts | 89° |
| 2026-04-25 12:57 | 29.63444 | -75.68205 | 38013 ft | 507 kts | 89° |
| 2026-04-25 12:58 | 29.63592 | -75.60093 | 38017 ft | 507 kts | 89° |
| 2026-04-25 12:58 | 29.63734 | -75.51987 | 38013 ft | 506 kts | 89° |
| 2026-04-25 12:59 | 29.63849 | -75.45258 | 38014 ft | 506 kts | 89° |
| 2026-04-25 12:59 | 29.63982 | -75.37161 | 38015 ft | 506 kts | 89° |
| 2026-04-25 13:00 | 29.64088 | -75.30432 | 38020 ft | 506 kts | 89° |
| 2026-04-25 13:00 | 29.64232 | -75.21037 | 38017 ft | 505 kts | 89° |
| 2026-04-25 13:01 | 29.64351 | -75.12941 | 38018 ft | 505 kts | 89° |
| 2026-04-25 13:01 | 29.64464 | -75.04869 | 38016 ft | 505 kts | 89° |
| 2026-04-25 13:02 | 29.64573 | -74.96740 | 38018 ft | 510 kts | 89° |
| 2026-04-25 13:02 | 29.64677 | -74.88571 | 38022 ft | 510 kts | 89° |
| 2026-04-25 13:03 | 29.64777 | -74.80416 | 38019 ft | 510 kts | 90° |
| 2026-04-25 13:03 | 29.64871 | -74.72264 | 38021 ft | 510 kts | 90° |
| 2026-04-25 13:04 | 29.64960 | -74.64168 | 38021 ft | 510 kts | 90° |
| 2026-04-25 13:04 | 29.65045 | -74.56017 | 38022 ft | 509 kts | 90° |
| 2026-04-25 13:05 | 29.65124 | -74.47863 | 38021 ft | 510 kts | 90° |
| 2026-04-25 13:05 | 29.65199 | -74.39704 | 38023 ft | 510 kts | 90° |
| 2026-04-25 13:06 | 29.65268 | -74.31599 | 38023 ft | 510 kts | 90° |
| 2026-04-25 13:06 | 29.65332 | -74.23442 | 38023 ft | 510 kts | 90° |
| 2026-04-25 13:07 | 29.65392 | -74.15281 | 38027 ft | 510 kts | 90° |
| 2026-04-25 13:07 | 29.65446 | -74.07129 | 38032 ft | 510 kts | 90° |
| 2026-04-25 13:08 | 29.65496 | -73.98972 | 38022 ft | 510 kts | 90° |
| 2026-04-25 13:08 | 29.65541 | -73.90811 | 38022 ft | 510 kts | 90° |
| 2026-04-25 13:09 | 29.65580 | -73.82640 | 38035 ft | 511 kts | 90° |
| 2026-04-25 13:09 | 29.65615 | -73.74519 | 38024 ft | 511 kts | 90° |
| 2026-04-25 13:10 | 29.65644 | -73.66347 | 38029 ft | 511 kts | 90° |
| 2026-04-25 13:10 | 29.65669 | -73.58171 | 38030 ft | 511 kts | 90° |
| 2026-04-25 13:11 | 29.65689 | -73.49994 | 38029 ft | 512 kts | 90° |
| 2026-04-25 13:11 | 29.65703 | -73.41810 | 38038 ft | 512 kts | 90° |
| 2026-04-25 13:12 | 29.65713 | -73.33616 | 38032 ft | 512 kts | 90° |
| 2026-04-25 13:12 | 29.65717 | -73.26809 | 38033 ft | 512 kts | 90° |
| 2026-04-25 13:13 | 29.65717 | -73.17237 | 38035 ft | 512 kts | 90° |
| 2026-04-25 13:13 | 29.65712 | -73.09087 | 38033 ft | 513 kts | 90° |
| 2026-04-25 13:14 | 29.65701 | -73.00889 | 38029 ft | 513 kts | 90° |
| 2026-04-25 13:14 | 29.65686 | -72.92687 | 38033 ft | 513 kts | 90° |
| 2026-04-25 13:15 | 29.65665 | -72.84486 | 38035 ft | 513 kts | 90° |
| 2026-04-25 13:15 | 29.65639 | -72.76270 | 38030 ft | 513 kts | 90° |
| 2026-04-25 13:16 | 29.65609 | -72.68055 | 38035 ft | 514 kts | 90° |
| 2026-04-25 13:16 | 29.65573 | -72.59840 | 38035 ft | 514 kts | 90° |
| 2026-04-25 13:17 | 29.65532 | -72.51673 | 38041 ft | 514 kts | 90° |
| 2026-04-25 13:17 | 29.65486 | -72.43443 | 38036 ft | 514 kts | 90° |
| 2026-04-25 13:18 | 29.65435 | -72.35214 | 38032 ft | 515 kts | 90° |
| 2026-04-25 13:18 | 29.65379 | -72.26980 | 38041 ft | 515 kts | 91° |
| 2026-04-25 13:19 | 29.65318 | -72.18751 | 38037 ft | 515 kts | 91° |
| 2026-04-25 13:19 | 29.65263 | -72.11896 | 38044 ft | 515 kts | 91° |
| 2026-04-25 13:20 | 29.65179 | -72.02240 | 38031 ft | 516 kts | 91° |
| 2026-04-25 13:20 | 29.65103 | -71.94048 | 38033 ft | 516 kts | 91° |
| 2026-04-25 13:21 | 29.65021 | -71.85796 | 38040 ft | 516 kts | 91° |
| 2026-04-25 13:21 | 29.64934 | -71.77525 | 38031 ft | 517 kts | 91° |
| 2026-04-25 13:22 | 29.64842 | -71.69274 | 38039 ft | 516 kts | 91° |
| 2026-04-25 13:23 | 29.64694 | -71.56871 | 38033 ft | 517 kts | 91° |
| 2026-04-25 13:23 | 29.64589 | -71.48588 | 38043 ft | 517 kts | 91° |
| 2026-04-25 13:24 | 29.64479 | -71.40365 | 38040 ft | 517 kts | 91° |
| 2026-04-25 13:24 | 29.64364 | -71.32100 | 38046 ft | 518 kts | 91° |
| 2026-04-25 13:25 | 29.64244 | -71.23821 | 38038 ft | 518 kts | 91° |
| 2026-04-25 13:25 | 29.64118 | -71.15539 | 38037 ft | 519 kts | 91° |
| 2026-04-25 13:26 | 29.63987 | -71.07247 | 38037 ft | 518 kts | 91° |
| 2026-04-25 13:26 | 29.63850 | -70.98957 | 38038 ft | 519 kts | 91° |
| 2026-04-25 13:27 | 29.63709 | -70.90654 | 38039 ft | 519 kts | 91° |
| 2026-04-25 13:27 | 29.63562 | -70.82356 | 38041 ft | 519 kts | 91° |
| 2026-04-25 13:28 | 29.63410 | -70.74050 | 38039 ft | 520 kts | 91° |
| 2026-04-25 13:28 | 29.63253 | -70.65737 | 38040 ft | 520 kts | 91° |
| 2026-04-25 13:29 | 29.63090 | -70.57417 | 38041 ft | 521 kts | 91° |
| 2026-04-25 13:29 | 29.62923 | -70.49147 | 38049 ft | 521 kts | 91° |
| 2026-04-25 13:30 | 29.62661 | -70.36653 | 38034 ft | 521 kts | 91° |
| 2026-04-25 13:31 | 29.62388 | -70.24143 | 38049 ft | 522 kts | 91° |
| 2026-04-25 13:31 | 29.62200 | -70.15880 | 38033 ft | 509 kts | 91° |
| 2026-04-25 13:32 | 29.62008 | -70.07641 | 38053 ft | 522 kts | 91° |
| 2026-04-25 13:32 | 29.61808 | -69.99267 | 38056 ft | 522 kts | 91° |
| 2026-04-25 13:33 | 29.61603 | -69.90903 | 38055 ft | 524 kts | 91° |
| 2026-04-25 13:33 | 29.61392 | -69.82529 | 38044 ft | 524 kts | 91° |
| 2026-04-25 13:34 | 29.61177 | -69.74210 | 38045 ft | 525 kts | 91° |
| 2026-04-25 13:34 | 29.60956 | -69.65818 | 38059 ft | 525 kts | 92° |
| 2026-04-25 13:35 | 29.60728 | -69.57419 | 38049 ft | 526 kts | 92° |
| 2026-04-25 13:35 | 29.60496 | -69.49013 | 38055 ft | 526 kts | 92° |
| 2026-04-25 13:36 | 29.60257 | -69.40584 | 38050 ft | 527 kts | 92° |
| 2026-04-25 13:36 | 29.60126 | -69.36477 | 38228 ft | 525 kts | 92° |
| 2026-04-25 13:36 | 29.60008 | -69.32345 | 38664 ft | 524 kts | 92° |
| 2026-04-25 13:36 | 29.59890 | -69.28175 | 39015 ft | 522 kts | 92° |
| 2026-04-25 13:37 | 29.59770 | -69.24011 | 39359 ft | 521 kts | 92° |
| 2026-04-25 13:37 | 29.59647 | -69.19842 | 39511 ft | 524 kts | 92° |
| 2026-04-25 13:37 | 29.59519 | -69.15615 | 39360 ft | 534 kts | 92° |
| 2026-04-25 13:38 | 29.59257 | -69.07130 | 38906 ft | 526 kts | 92° |
| 2026-04-25 13:38 | 29.59126 | -69.02934 | 38317 ft | 524 kts | 92° |
| 2026-04-25 13:38 | 29.58994 | -68.98770 | 38070 ft | 519 kts | 92° |
| 2026-04-25 13:39 | 29.58724 | -68.90376 | 38058 ft | 533 kts | 92° |
| 2026-04-25 13:39 | 29.58447 | -68.81889 | 38047 ft | 531 kts | 92° |
| 2026-04-25 13:40 | 29.58165 | -68.73451 | 38051 ft | 532 kts | 92° |
| 2026-04-25 13:40 | 29.57876 | -68.64946 | 38050 ft | 533 kts | 92° |
| 2026-04-25 13:41 | 29.57591 | -68.56438 | 38062 ft | 534 kts | 92° |
| 2026-04-25 13:41 | 29.57284 | -68.47898 | 38057 ft | 534 kts | 92° |
| 2026-04-25 13:42 | 29.56974 | -68.39360 | 38049 ft | 535 kts | 93° |
| 2026-04-25 13:42 | 29.56663 | -68.30866 | 38052 ft | 536 kts | 93° |
| 2026-04-25 13:43 | 29.56344 | -68.22308 | 38047 ft | 536 kts | 93° |
| 2026-04-25 13:43 | 29.56020 | -68.13748 | 38057 ft | 537 kts | 93° |
| 2026-04-25 13:44 | 29.55690 | -68.05161 | 38057 ft | 537 kts | 93° |
| 2026-04-25 13:44 | 29.55354 | -67.96575 | 38057 ft | 538 kts | 93° |
| 2026-04-25 13:45 | 29.55012 | -67.87978 | 38050 ft | 539 kts | 93° |
| 2026-04-25 13:45 | 29.54664 | -67.79375 | 38057 ft | 540 kts | 94° |
| 2026-04-25 13:46 | 29.54311 | -67.70770 | 38048 ft | 540 kts | 94° |
| 2026-04-25 13:46 | 29.53954 | -67.62213 | 38046 ft | 540 kts | 94° |
| 2026-04-25 13:47 | 29.53588 | -67.53586 | 38048 ft | 543 kts | 94° |
| 2026-04-25 13:47 | 29.53277 | -67.46336 | 38049 ft | 541 kts | 94° |
| 2026-04-25 13:48 | 29.52902 | -67.37744 | 38047 ft | 542 kts | 94° |
| 2026-04-25 13:48 | 29.52520 | -67.29097 | 38051 ft | 542 kts | 94° |
| 2026-04-25 13:49 | 29.52133 | -67.20465 | 38059 ft | 542 kts | 94° |
| 2026-04-25 13:49 | 29.51739 | -67.11810 | 38047 ft | 542 kts | 94° |
| 2026-04-25 13:50 | 29.51339 | -67.03144 | 38057 ft | 542 kts | 94° |
| 2026-04-25 13:50 | 29.50934 | -66.94504 | 38058 ft | 542 kts | 94° |
| 2026-04-25 13:51 | 29.50524 | -66.85850 | 38058 ft | 542 kts | 94° |
| 2026-04-25 13:51 | 29.50111 | -66.77268 | 38053 ft | 542 kts | 94° |
| 2026-04-25 13:52 | 29.49689 | -66.68619 | 38040 ft | 542 kts | 94° |
| 2026-04-25 13:52 | 29.49262 | -66.59985 | 38031 ft | 541 kts | 94° |
| 2026-04-25 13:53 | 29.48829 | -66.51329 | 38036 ft | 541 kts | 94° |
| 2026-04-25 13:53 | 29.48391 | -66.42692 | 38045 ft | 541 kts | 94° |
| 2026-04-25 13:54 | 29.47950 | -66.34112 | 38049 ft | 542 kts | 94° |
| 2026-04-25 13:54 | 29.47502 | -66.25485 | 38050 ft | 542 kts | 95° |
| 2026-04-25 13:55 | 29.47046 | -66.16826 | 38048 ft | 542 kts | 95° |
| 2026-04-25 13:55 | 29.46587 | -66.08232 | 38046 ft | 543 kts | 95° |
| 2026-04-25 13:56 | 29.46122 | -65.99602 | 38047 ft | 543 kts | 95° |
| 2026-04-25 13:56 | 29.45648 | -65.90932 | 38047 ft | 543 kts | 95° |
| 2026-04-25 13:57 | 29.45169 | -65.82265 | 38049 ft | 544 kts | 95° |
| 2026-04-25 13:57 | 29.44688 | -65.73656 | 38046 ft | 544 kts | 95° |
| 2026-04-25 13:58 | 29.44198 | -65.64991 | 38048 ft | 544 kts | 95° |
| 2026-04-25 13:58 | 29.43701 | -65.56306 | 38050 ft | 545 kts | 95° |
| 2026-04-25 13:59 | 29.43197 | -65.47604 | 38049 ft | 547 kts | 96° |
| 2026-04-25 13:59 | 29.42687 | -65.38892 | 38048 ft | 548 kts | 96° |
| 2026-04-25 14:00 | 29.42170 | -65.30157 | 38048 ft | 549 kts | 96° |
| 2026-04-25 14:00 | 29.41649 | -65.21443 | 38049 ft | 551 kts | 96° |
| 2026-04-25 14:01 | 29.41117 | -65.12654 | 38050 ft | 552 kts | 96° |
| 2026-04-25 14:01 | 29.40578 | -65.03842 | 38050 ft | 554 kts | 97° |
| 2026-04-25 14:02 | 29.40031 | -64.95008 | 38049 ft | 555 kts | 97° |
| 2026-04-25 14:02 | 29.39482 | -64.86212 | 38046 ft | 557 kts | 97° |
| 2026-04-25 14:03 | 29.38919 | -64.77316 | 38050 ft | 560 kts | 98° |
| 2026-04-25 14:03 | 29.38350 | -64.68395 | 38050 ft | 561 kts | 98° |
| 2026-04-25 14:04 | 29.37773 | -64.59456 | 38047 ft | 564 kts | 98° |
| 2026-04-25 14:04 | 29.37187 | -64.50465 | 38053 ft | 566 kts | 99° |
| 2026-04-25 14:05 | 29.36593 | -64.41457 | 38049 ft | 568 kts | 99° |
| 2026-04-25 14:05 | 29.35992 | -64.32424 | 38047 ft | 570 kts | 99° |
| 2026-04-25 14:06 | 29.35381 | -64.23336 | 38047 ft | 572 kts | 99° |
| 2026-04-25 14:06 | 29.34767 | -64.14288 | 38048 ft | 573 kts | 100° |
| 2026-04-25 14:07 | 29.34141 | -64.05165 | 38043 ft | 575 kts | 100° |
| 2026-04-25 14:07 | 29.33507 | -63.96018 | 38041 ft | 576 kts | 101° |
| 2026-04-25 14:08 | 29.32865 | -63.86842 | 38044 ft | 577 kts | 101° |
| 2026-04-25 14:08 | 29.32217 | -63.77662 | 38048 ft | 578 kts | 101° |
| 2026-04-25 14:09 | 29.31561 | -63.68475 | 38048 ft | 579 kts | 101° |
| 2026-04-25 14:09 | 29.30898 | -63.59274 | 38043 ft | 579 kts | 101° |
| 2026-04-25 14:10 | 29.30232 | -63.50119 | 38047 ft | 580 kts | 101° |
| 2026-04-25 14:10 | 29.29556 | -63.40910 | 38048 ft | 580 kts | 102° |
| 2026-04-25 14:11 | 29.28872 | -63.31694 | 38043 ft | 580 kts | 102° |
| 2026-04-25 14:11 | 29.28182 | -63.22467 | 38045 ft | 580 kts | 102° |
| 2026-04-25 14:12 | 29.27485 | -63.13246 | 38049 ft | 581 kts | 102° |
| 2026-04-25 14:12 | 29.26785 | -63.04070 | 38046 ft | 582 kts | 102° |
| 2026-04-25 14:13 | 29.26071 | -62.94783 | 38044 ft | 582 kts | 102° |
| 2026-04-25 14:13 | 29.25357 | -62.85587 | 38043 ft | 583 kts | 102° |
| 2026-04-25 14:14 | 29.24631 | -62.76322 | 38045 ft | 584 kts | 102° |
| 2026-04-25 14:14 | 29.23897 | -62.67041 | 38046 ft | 585 kts | 102° |
| 2026-04-25 14:15 | 29.23156 | -62.57748 | 38044 ft | 587 kts | 102° |
| 2026-04-25 14:15 | 29.22407 | -62.48427 | 38047 ft | 588 kts | 102° |
| 2026-04-25 14:16 | 29.21655 | -62.39166 | 38043 ft | 588 kts | 102° |
| 2026-04-25 14:16 | 29.20891 | -62.29825 | 38046 ft | 589 kts | 102° |
| 2026-04-25 14:17 | 29.20120 | -62.20489 | 38043 ft | 590 kts | 102° |
| 2026-04-25 14:17 | 29.19341 | -62.11121 | 38043 ft | 590 kts | 102° |
| 2026-04-25 14:18 | 29.18554 | -62.01755 | 38048 ft | 592 kts | 102° |
| 2026-04-25 14:18 | 29.17759 | -61.92370 | 38048 ft | 592 kts | 102° |
| 2026-04-25 14:19 | 29.16961 | -61.83024 | 38047 ft | 593 kts | 102° |
| 2026-04-25 14:19 | 29.16152 | -61.73625 | 38044 ft | 593 kts | 102° |
| 2026-04-25 14:20 | 29.15336 | -61.64221 | 38044 ft | 594 kts | 102° |
| 2026-04-25 14:20 | 29.14512 | -61.54810 | 38043 ft | 595 kts | 102° |
| 2026-04-25 14:21 | 29.13681 | -61.45389 | 38036 ft | 595 kts | 102° |
| 2026-04-25 14:21 | 29.12842 | -61.35957 | 38045 ft | 596 kts | 102° |
| 2026-04-25 14:22 | 29.11996 | -61.26521 | 38044 ft | 596 kts | 102° |
| 2026-04-25 14:22 | 29.11144 | -61.17086 | 38040 ft | 596 kts | 102° |
| 2026-04-25 14:23 | 29.10289 | -61.07697 | 38042 ft | 597 kts | 102° |
| 2026-04-25 14:23 | 29.09421 | -60.98243 | 38037 ft | 597 kts | 102° |
| 2026-04-25 14:24 | 29.08548 | -60.88805 | 38040 ft | 597 kts | 102° |
| 2026-04-25 14:24 | 29.07671 | -60.79399 | 38037 ft | 597 kts | 102° |
| 2026-04-25 14:25 | 29.06789 | -60.69977 | 38042 ft | 596 kts | 102° |
| 2026-04-25 14:25 | 29.05903 | -60.60553 | 38042 ft | 596 kts | 102° |
| 2026-04-25 14:26 | 29.05010 | -60.51117 | 38040 ft | 596 kts | 102° |
| 2026-04-25 14:26 | 29.04112 | -60.41709 | 38042 ft | 595 kts | 102° |
| 2026-04-25 14:27 | 29.03208 | -60.32301 | 38044 ft | 595 kts | 102° |
| 2026-04-25 14:27 | 29.02305 | -60.22973 | 38039 ft | 595 kts | 102° |
| 2026-04-25 14:28 | 29.01389 | -60.13583 | 38045 ft | 595 kts | 102° |
| 2026-04-25 14:28 | 29.00465 | -60.04179 | 38038 ft | 595 kts | 102° |
| 2026-04-25 14:29 | 28.99743 | -59.94736 | 38041 ft | 601 kts | 95° |
| 2026-04-25 14:29 | 29.00004 | -59.85168 | 38036 ft | 602 kts | 92° |
| 2026-04-25 14:30 | 29.00230 | -59.75608 | 38037 ft | 602 kts | 94° |
| 2026-04-25 14:30 | 29.00380 | -59.61292 | 38046 ft | 600 kts | 94° |
| 2026-04-25 14:31 | 29.00452 | -59.51815 | 38047 ft | 602 kts | 94° |
| 2026-04-25 14:31 | 29.00520 | -59.42253 | 38042 ft | 601 kts | 94° |
| 2026-04-25 14:32 | 29.00582 | -59.32695 | 38031 ft | 602 kts | 94° |
| 2026-04-25 14:32 | 29.00628 | -59.24719 | 38032 ft | 602 kts | 94° |
| 2026-04-25 14:33 | 29.00685 | -59.13603 | 38043 ft | 601 kts | 94° |
| 2026-04-25 14:33 | 29.00720 | -59.05659 | 38025 ft | 602 kts | 94° |
| 2026-04-25 14:34 | 29.00756 | -58.96085 | 38028 ft | 602 kts | 94° |
| 2026-04-25 14:34 | 29.00786 | -58.86494 | 38039 ft | 602 kts | 94° |
| 2026-04-25 14:35 | 29.00808 | -58.76924 | 38029 ft | 602 kts | 94° |
| 2026-04-25 14:35 | 29.00824 | -58.67337 | 38038 ft | 603 kts | 94° |
| 2026-04-25 14:36 | 29.00833 | -58.57759 | 38032 ft | 603 kts | 94° |
| 2026-04-25 14:36 | 29.00835 | -58.48171 | 38035 ft | 603 kts | 94° |
| 2026-04-25 14:37 | 29.00830 | -58.38656 | 38033 ft | 603 kts | 94° |
| 2026-04-25 14:37 | 29.00819 | -58.29064 | 38023 ft | 604 kts | 94° |
| 2026-04-25 14:38 | 29.00800 | -58.19465 | 38036 ft | 604 kts | 94° |
| 2026-04-25 14:38 | 29.00775 | -58.09856 | 38022 ft | 604 kts | 94° |
| 2026-04-25 14:39 | 29.00743 | -58.00258 | 38022 ft | 604 kts | 94° |
| 2026-04-25 14:39 | 29.00704 | -57.90655 | 38022 ft | 604 kts | 94° |
| 2026-04-25 14:40 | 29.00659 | -57.81101 | 38028 ft | 605 kts | 94° |
| 2026-04-25 14:40 | 29.00607 | -57.71492 | 38028 ft | 605 kts | 94° |
| 2026-04-25 14:41 | 29.00547 | -57.61865 | 38027 ft | 605 kts | 94° |
| 2026-04-25 14:41 | 29.00481 | -57.52250 | 38028 ft | 605 kts | 94° |
| 2026-04-25 14:42 | 29.00421 | -57.44258 | 38031 ft | 605 kts | 94° |
| 2026-04-25 14:42 | 29.00328 | -57.33004 | 38027 ft | 606 kts | 94° |
| 2026-04-25 14:43 | 29.00242 | -57.23438 | 38021 ft | 606 kts | 94° |
| 2026-04-25 14:43 | 29.00148 | -57.13811 | 38032 ft | 606 kts | 94° |
| 2026-04-25 14:44 | 29.00050 | -57.04177 | 38029 ft | 606 kts | 94° |
| 2026-04-25 14:44 | 29.00031 | -56.94533 | 38024 ft | 607 kts | 91° |
| 2026-04-25 14:45 | 29.00323 | -56.84882 | 38027 ft | 608 kts | 90° |
| 2026-04-25 14:45 | 29.00603 | -56.75207 | 38019 ft | 608 kts | 91° |
| 2026-04-25 14:46 | 29.00846 | -56.65555 | 38023 ft | 608 kts | 91° |
| 2026-04-25 14:46 | 29.01072 | -56.55957 | 38025 ft | 608 kts | 91° |
| 2026-04-25 14:47 | 29.01254 | -56.47860 | 38022 ft | 608 kts | 91° |
| 2026-04-25 14:47 | 29.01497 | -56.36637 | 38022 ft | 608 kts | 91° |
| 2026-04-25 14:48 | 29.01699 | -56.26967 | 38016 ft | 608 kts | 91° |
| 2026-04-25 14:48 | 29.01894 | -56.17287 | 38018 ft | 608 kts | 91° |
| 2026-04-25 14:49 | 29.02082 | -56.07612 | 38014 ft | 609 kts | 91° |
| 2026-04-25 14:49 | 29.02263 | -55.97947 | 38018 ft | 609 kts | 91° |
| 2026-04-25 14:50 | 29.02438 | -55.88265 | 38020 ft | 609 kts | 91° |
| 2026-04-25 14:50 | 29.02604 | -55.78638 | 38017 ft | 609 kts | 91° |
| 2026-04-25 14:51 | 29.02765 | -55.68968 | 38013 ft | 609 kts | 91° |
| 2026-04-25 14:51 | 29.02918 | -55.59267 | 38015 ft | 609 kts | 91° |
| 2026-04-25 14:52 | 29.03065 | -55.49576 | 38013 ft | 610 kts | 91° |
| 2026-04-25 14:52 | 29.03182 | -55.41503 | 38018 ft | 610 kts | 91° |
| 2026-04-25 14:53 | 29.03337 | -55.30251 | 38017 ft | 610 kts | 91° |
| 2026-04-25 14:53 | 29.03463 | -55.20550 | 38014 ft | 610 kts | 91° |
| 2026-04-25 14:54 | 29.03582 | -55.10855 | 38015 ft | 611 kts | 91° |
| 2026-04-25 14:54 | 29.03694 | -55.01142 | 38013 ft | 610 kts | 91° |
| 2026-04-25 14:55 | 29.03799 | -54.91502 | 38015 ft | 611 kts | 91° |
| 2026-04-25 14:55 | 29.03897 | -54.81799 | 38019 ft | 611 kts | 91° |
| 2026-04-25 14:56 | 29.03989 | -54.72070 | 38015 ft | 611 kts | 91° |
| 2026-04-25 14:56 | 29.04073 | -54.62379 | 38010 ft | 611 kts | 91° |
| 2026-04-25 14:57 | 29.04151 | -54.52634 | 38015 ft | 611 kts | 91° |
| 2026-04-25 14:57 | 29.04221 | -54.42915 | 38018 ft | 612 kts | 91° |
| 2026-04-25 14:58 | 29.04284 | -54.33177 | 38012 ft | 612 kts | 91° |
| 2026-04-25 14:58 | 29.04341 | -54.23519 | 38007 ft | 612 kts | 91° |
| 2026-04-25 14:59 | 29.04390 | -54.13789 | 38010 ft | 612 kts | 91° |
| 2026-04-25 14:59 | 29.04433 | -54.04048 | 38017 ft | 612 kts | 91° |
| 2026-04-25 15:00 | 29.04468 | -53.94299 | 38023 ft | 613 kts | 91° |
| 2026-04-25 15:00 | 29.04496 | -53.84561 | 38020 ft | 613 kts | 91° |
| 2026-04-25 15:01 | 29.04518 | -53.74807 | 38012 ft | 613 kts | 91° |
| 2026-04-25 15:01 | 29.04532 | -53.65136 | 38022 ft | 613 kts | 92° |
| 2026-04-25 15:02 | 29.04540 | -53.55378 | 38012 ft | 613 kts | 92° |
| 2026-04-25 15:02 | 29.04540 | -53.45632 | 38015 ft | 614 kts | 92° |
| 2026-04-25 15:03 | 29.04533 | -53.35865 | 38018 ft | 614 kts | 92° |
| 2026-04-25 15:03 | 29.04520 | -53.26102 | 38007 ft | 614 kts | 92° |
| 2026-04-25 15:04 | 29.04499 | -53.16341 | 38016 ft | 614 kts | 92° |
| 2026-04-25 15:04 | 29.04471 | -53.06575 | 38012 ft | 614 kts | 92° |
| 2026-04-25 15:05 | 29.04436 | -52.96861 | 38006 ft | 614 kts | 92° |
| 2026-04-25 15:06 | 29.04370 | -52.82200 | 38009 ft | 615 kts | 92° |
| 2026-04-25 15:06 | 29.04318 | -52.72434 | 38012 ft | 615 kts | 92° |
| 2026-04-25 15:07 | 29.04258 | -52.62664 | 38011 ft | 615 kts | 92° |
| 2026-04-25 15:07 | 29.04192 | -52.52925 | 38013 ft | 615 kts | 92° |
| 2026-04-25 15:08 | 29.04118 | -52.43147 | 38014 ft | 615 kts | 92° |
| 2026-04-25 15:08 | 29.04037 | -52.33370 | 38014 ft | 615 kts | 92° |
| 2026-04-25 15:09 | 29.03948 | -52.23566 | 38014 ft | 615 kts | 92° |
| 2026-04-25 15:09 | 29.03803 | -52.08936 | 38018 ft | 616 kts | 92° |
| 2026-04-25 15:10 | 29.03697 | -51.99130 | 38019 ft | 617 kts | 92° |
| 2026-04-25 15:11 | 29.03525 | -51.84426 | 38015 ft | 616 kts | 92° |
| 2026-04-25 15:11 | 29.03401 | -51.74619 | 38019 ft | 617 kts | 92° |
| 2026-04-25 15:12 | 29.03202 | -51.59899 | 38017 ft | 617 kts | 92° |
| 2026-04-25 15:12 | 29.03109 | -51.53404 | 38020 ft | 618 kts | 92° |
| 2026-04-25 15:13 | 29.02834 | -51.35352 | 38017 ft | 618 kts | 92° |
| 2026-04-25 15:14 | 29.02675 | -51.25590 | 38020 ft | 618 kts | 92° |
| 2026-04-25 15:14 | 29.02508 | -51.15764 | 38020 ft | 619 kts | 92° |
| 2026-04-25 15:15 | 29.02333 | -51.05921 | 38020 ft | 619 kts | 93° |
| 2026-04-25 15:15 | 29.02303 | -51.04262 | 38020 ft | 619 kts | 92° |